Belle Plain, Colorado
Current Conditions -  °F | °C
As of 5:53 PM on Friday 21 Nov 2014 (Local Time) from KPUB Reporting Station
Clear Clear  
Wind Chill: 43°   Ceiling: Unl
Heat Index: 45°   Visibility: 10mi
Dew Point: 30°   Wind: 5mph
Humidity: 56%   Direction: 90°E
Pressure: 29.94"   Gusts: NA
Location:  38.2964°N, 104.538°W
Report Text: KPUB 220053Z 09004KT 10SM CLR 07/M01 A2994 RMK AO2 SLP149 T00721011
Loading
Personal Weather Stations






























Interactive Weather Map New forecast layout! Learn more

10-Day Weather Forecast

Advertisements
Track Severe Weather on mobile